sensor_id;sensor_type;location;lat;lon;timestamp;P1;durP1;ratioP1;P2;durP2;ratioP2
45011;SDS011;63444;48.148;11.542;2024-01-30T00:01:26;8.93;;;5.87;;
45011;SDS011;63444;48.148;11.542;2024-01-30T00:03:51;7.63;;;5.33;;
45011;SDS011;63444;48.148;11.542;2024-01-30T00:06:20;7.87;;;5.33;;
45011;SDS011;63444;48.148;11.542;2024-01-30T00:08:46;7.03;;;4.77;;
45011;SDS011;63444;48.148;11.542;2024-01-30T00:11:13;6.63;;;5.30;;
45011;SDS011;63444;48.148;11.542;2024-01-30T00:13:39;9.43;;;5.27;;
45011;SDS011;63444;48.148;11.542;2024-01-30T00:16:05;8.47;;;5.33;;
45011;SDS011;63444;48.148;11.542;2024-01-30T00:18:31;9.47;;;5.47;;
45011;SDS011;63444;48.148;11.542;2024-01-30T00:20:57;7.83;;;4.90;;
45011;SDS011;63444;48.148;11.542;2024-01-30T00:23:23;10.13;;;5.93;;
45011;SDS011;63444;48.148;11.542;2024-01-30T00:25:49;8.83;;;6.30;;
45011;SDS011;63444;48.148;11.542;2024-01-30T00:28:15;7.30;;;5.23;;
45011;SDS011;63444;48.148;11.542;2024-01-30T00:30:41;9.10;;;5.80;;
45011;SDS011;63444;48.148;11.542;2024-01-30T00:33:08;9.27;;;5.73;;
45011;SDS011;63444;48.148;11.542;2024-01-30T00:35:34;6.87;;;5.60;;
45011;SDS011;63444;48.148;11.542;2024-01-30T00:37:59;8.40;;;5.93;;
45011;SDS011;63444;48.148;11.542;2024-01-30T00:40:25;7.00;;;5.70;;
45011;SDS011;63444;48.148;11.542;2024-01-30T00:42:51;7.43;;;5.70;;
45011;SDS011;63444;48.148;11.542;2024-01-30T00:45:18;8.13;;;5.90;;
45011;SDS011;63444;48.148;11.542;2024-01-30T00:47:44;8.43;;;5.80;;
45011;SDS011;63444;48.148;11.542;2024-01-30T00:50:10;7.73;;;5.60;;
45011;SDS011;63444;48.148;11.542;2024-01-30T00:52:36;9.40;;;5.93;;
45011;SDS011;63444;48.148;11.542;2024-01-30T00:55:04;10.10;;;5.90;;
45011;SDS011;63444;48.148;11.542;2024-01-30T00:57:30;9.17;;;5.77;;
45011;SDS011;63444;48.148;11.542;2024-01-30T00:59:56;9.10;;;5.87;;
45011;SDS011;63444;48.148;11.542;2024-01-30T01:02:22;9.07;;;6.23;;
45011;SDS011;63444;48.148;11.542;2024-01-30T01:04:47;8.13;;;6.27;;
45011;SDS011;63444;48.148;11.542;2024-01-30T01:07:13;8.47;;;5.60;;
45011;SDS011;63444;48.148;11.542;2024-01-30T01:09:39;10.50;;;6.47;;
45011;SDS011;63444;48.148;11.542;2024-01-30T01:12:04;7.90;;;5.43;;
45011;SDS011;63444;48.148;11.542;2024-01-30T01:14:30;9.80;;;5.80;;
45011;SDS011;63444;48.148;11.542;2024-01-30T01:16:56;8.03;;;5.80;;
45011;SDS011;63444;48.148;11.542;2024-01-30T01:19:21;8.10;;;5.60;;
45011;SDS011;63444;48.148;11.542;2024-01-30T01:21:47;10.27;;;5.60;;
45011;SDS011;63444;48.148;11.542;2024-01-30T01:24:13;7.17;;;5.63;;
45011;SDS011;63444;48.148;11.542;2024-01-30T01:26:39;9.33;;;6.00;;
45011;SDS011;63444;48.148;11.542;2024-01-30T01:29:05;9.57;;;6.03;;
45011;SDS011;63444;48.148;11.542;2024-01-30T01:31:38;8.37;;;5.60;;
45011;SDS011;63444;48.148;11.542;2024-01-30T01:34:11;8.03;;;5.73;;
45011;SDS011;63444;48.148;11.542;2024-01-30T01:36:36;8.27;;;5.80;;
45011;SDS011;63444;48.148;11.542;2024-01-30T01:39:02;10.20;;;5.80;;
45011;SDS011;63444;48.148;11.542;2024-01-30T01:41:34;9.17;;;5.20;;
45011;SDS011;63444;48.148;11.542;2024-01-30T01:44:00;8.70;;;5.17;;
45011;SDS011;63444;48.148;11.542;2024-01-30T01:46:26;8.37;;;5.73;;
45011;SDS011;63444;48.148;11.542;2024-01-30T01:48:54;6.40;;;4.80;;
45011;SDS011;63444;48.148;11.542;2024-01-30T01:51:21;7.73;;;5.57;;
45011;SDS011;63444;48.148;11.542;2024-01-30T01:53:48;6.57;;;5.37;;
45011;SDS011;63444;48.148;11.542;2024-01-30T01:56:13;8.53;;;5.50;;
45011;SDS011;63444;48.148;11.542;2024-01-30T01:58:40;8.40;;;6.00;;
45011;SDS011;63444;48.148;11.542;2024-01-30T02:01:06;10.17;;;5.67;;
45011;SDS011;63444;48.148;11.542;2024-01-30T02:03:33;7.23;;;5.10;;
45011;SDS011;63444;48.148;11.542;2024-01-30T02:05:59;8.73;;;5.03;;
45011;SDS011;63444;48.148;11.542;2024-01-30T02:08:27;6.73;;;5.10;;
45011;SDS011;63444;48.148;11.542;2024-01-30T02:10:53;8.33;;;5.57;;
45011;SDS011;63444;48.148;11.542;2024-01-30T02:13:19;7.90;;;4.90;;
45011;SDS011;63444;48.148;11.542;2024-01-30T02:15:48;7.37;;;5.00;;
45011;SDS011;63444;48.148;11.542;2024-01-30T02:18:19;8.33;;;5.10;;
45011;SDS011;63444;48.148;11.542;2024-01-30T02:20:45;6.60;;;4.93;;
45011;SDS011;63444;48.148;11.542;2024-01-30T02:23:11;7.40;;;4.20;;
45011;SDS011;63444;48.148;11.542;2024-01-30T02:25:38;5.80;;;4.77;;
45011;SDS011;63444;48.148;11.542;2024-01-30T02:28:10;6.83;;;4.90;;
45011;SDS011;63444;48.148;11.542;2024-01-30T02:30:39;6.80;;;4.73;;
45011;SDS011;63444;48.148;11.542;2024-01-30T02:33:05;5.93;;;4.60;;
45011;SDS011;63444;48.148;11.542;2024-01-30T02:35:31;6.47;;;4.97;;
45011;SDS011;63444;48.148;11.542;2024-01-30T02:37:58;6.20;;;4.40;;
45011;SDS011;63444;48.148;11.542;2024-01-30T02:40:24;6.10;;;4.53;;
45011;SDS011;63444;48.148;11.542;2024-01-30T02:42:49;6.30;;;4.37;;
45011;SDS011;63444;48.148;11.542;2024-01-30T02:45:15;6.70;;;4.47;;
45011;SDS011;63444;48.148;11.542;2024-01-30T02:47:41;7.70;;;4.67;;
45011;SDS011;63444;48.148;11.542;2024-01-30T02:50:06;6.83;;;4.87;;
45011;SDS011;63444;48.148;11.542;2024-01-30T02:52:32;6.23;;;4.50;;
45011;SDS011;63444;48.148;11.542;2024-01-30T02:54:58;6.23;;;4.70;;
45011;SDS011;63444;48.148;11.542;2024-01-30T02:57:24;6.30;;;4.90;;
45011;SDS011;63444;48.148;11.542;2024-01-30T02:59:51;5.77;;;4.23;;
45011;SDS011;63444;48.148;11.542;2024-01-30T03:02:16;5.60;;;4.33;;
45011;SDS011;63444;48.148;11.542;2024-01-30T03:04:42;6.87;;;4.70;;
45011;SDS011;63444;48.148;11.542;2024-01-30T03:07:08;4.93;;;3.83;;
45011;SDS011;63444;48.148;11.542;2024-01-30T03:09:34;5.03;;;3.87;;
45011;SDS011;63444;48.148;11.542;2024-01-30T03:11:59;6.63;;;3.93;;
45011;SDS011;63444;48.148;11.542;2024-01-30T03:14:26;5.30;;;3.80;;
45011;SDS011;63444;48.148;11.542;2024-01-30T03:16:51;5.17;;;3.67;;
45011;SDS011;63444;48.148;11.542;2024-01-30T03:19:17;5.30;;;4.20;;
45011;SDS011;63444;48.148;11.542;2024-01-30T03:21:43;4.60;;;3.60;;
45011;SDS011;63444;48.148;11.542;2024-01-30T03:24:09;5.00;;;3.97;;
45011;SDS011;63444;48.148;11.542;2024-01-30T03:26:35;5.27;;;3.80;;
45011;SDS011;63444;48.148;11.542;2024-01-30T03:29:01;6.20;;;3.90;;
45011;SDS011;63444;48.148;11.542;2024-01-30T03:31:26;6.17;;;3.63;;
45011;SDS011;63444;48.148;11.542;2024-01-30T03:33:52;4.70;;;3.90;;
45011;SDS011;63444;48.148;11.542;2024-01-30T03:36:18;4.83;;;3.83;;
45011;SDS011;63444;48.148;11.542;2024-01-30T03:38:44;6.03;;;3.90;;
45011;SDS011;63444;48.148;11.542;2024-01-30T03:41:09;4.93;;;3.97;;
45011;SDS011;63444;48.148;11.542;2024-01-30T03:43:35;5.23;;;3.80;;
45011;SDS011;63444;48.148;11.542;2024-01-30T03:46:02;5.20;;;3.73;;
45011;SDS011;63444;48.148;11.542;2024-01-30T03:48:28;5.40;;;4.10;;
45011;SDS011;63444;48.148;11.542;2024-01-30T03:50:54;4.97;;;3.80;;
45011;SDS011;63444;48.148;11.542;2024-01-30T03:53:20;6.00;;;3.97;;
45011;SDS011;63444;48.148;11.542;2024-01-30T03:55:47;4.33;;;3.27;;
45011;SDS011;63444;48.148;11.542;2024-01-30T03:58:12;4.33;;;3.70;;
45011;SDS011;63444;48.148;11.542;2024-01-30T04:00:38;4.77;;;3.67;;
45011;SDS011;63444;48.148;11.542;2024-01-30T04:03:04;4.33;;;3.63;;
45011;SDS011;63444;48.148;11.542;2024-01-30T04:05:30;7.20;;;4.13;;
45011;SDS011;63444;48.148;11.542;2024-01-30T04:07:55;4.43;;;3.67;;
45011;SDS011;63444;48.148;11.542;2024-01-30T04:10:21;5.30;;;3.70;;
45011;SDS011;63444;48.148;11.542;2024-01-30T04:12:47;5.07;;;3.67;;
45011;SDS011;63444;48.148;11.542;2024-01-30T04:15:12;5.73;;;3.40;;
45011;SDS011;63444;48.148;11.542;2024-01-30T04:17:39;6.27;;;3.77;;
45011;SDS011;63444;48.148;11.542;2024-01-30T04:20:05;7.30;;;3.90;;
45011;SDS011;63444;48.148;11.542;2024-01-30T04:22:31;5.03;;;3.83;;
45011;SDS011;63444;48.148;11.542;2024-01-30T04:24:57;5.57;;;3.83;;
45011;SDS011;63444;48.148;11.542;2024-01-30T04:27:22;5.37;;;3.83;;
45011;SDS011;63444;48.148;11.542;2024-01-30T04:29:48;4.93;;;3.67;;
45011;SDS011;63444;48.148;11.542;2024-01-30T04:32:14;5.13;;;3.43;;
45011;SDS011;63444;48.148;11.542;2024-01-30T04:34:40;4.77;;;3.50;;
45011;SDS011;63444;48.148;11.542;2024-01-30T04:37:05;4.50;;;3.53;;
45011;SDS011;63444;48.148;11.542;2024-01-30T04:39:32;5.87;;;3.57;;
45011;SDS011;63444;48.148;11.542;2024-01-30T04:41:58;4.47;;;3.50;;
45011;SDS011;63444;48.148;11.542;2024-01-30T04:44:24;5.53;;;3.27;;
45011;SDS011;63444;48.148;11.542;2024-01-30T04:46:50;5.20;;;3.70;;
45011;SDS011;63444;48.148;11.542;2024-01-30T04:49:15;5.27;;;3.67;;
45011;SDS011;63444;48.148;11.542;2024-01-30T04:51:41;5.60;;;3.70;;
45011;SDS011;63444;48.148;11.542;2024-01-30T04:54:06;4.60;;;3.60;;
45011;SDS011;63444;48.148;11.542;2024-01-30T04:56:32;4.97;;;3.50;;
45011;SDS011;63444;48.148;11.542;2024-01-30T04:58:58;4.80;;;3.47;;
45011;SDS011;63444;48.148;11.542;2024-01-30T05:01:24;4.87;;;3.60;;
45011;SDS011;63444;48.148;11.542;2024-01-30T05:03:49;4.77;;;3.50;;
45011;SDS011;63444;48.148;11.542;2024-01-30T05:06:23;4.10;;;3.40;;
45011;SDS011;63444;48.148;11.542;2024-01-30T05:08:52;4.23;;;3.30;;
45011;SDS011;63444;48.148;11.542;2024-01-30T05:11:18;4.30;;;3.67;;
45011;SDS011;63444;48.148;11.542;2024-01-30T05:13:43;4.37;;;3.27;;
45011;SDS011;63444;48.148;11.542;2024-01-30T05:16:09;3.70;;;3.27;;
45011;SDS011;63444;48.148;11.542;2024-01-30T05:18:35;4.53;;;3.50;;
45011;SDS011;63444;48.148;11.542;2024-01-30T05:21:01;4.97;;;3.47;;
45011;SDS011;63444;48.148;11.542;2024-01-30T05:23:27;4.33;;;3.60;;
45011;SDS011;63444;48.148;11.542;2024-01-30T05:25:53;5.43;;;3.73;;
45011;SDS011;63444;48.148;11.542;2024-01-30T05:28:19;7.03;;;3.60;;
45011;SDS011;63444;48.148;11.542;2024-01-30T05:30:44;4.63;;;3.43;;
45011;SDS011;63444;48.148;11.542;2024-01-30T05:33:10;4.63;;;3.53;;
45011;SDS011;63444;48.148;11.542;2024-01-30T05:35:37;4.77;;;3.67;;
45011;SDS011;63444;48.148;11.542;2024-01-30T05:38:03;5.03;;;3.37;;
45011;SDS011;63444;48.148;11.542;2024-01-30T05:40:29;7.07;;;3.50;;
45011;SDS011;63444;48.148;11.542;2024-01-30T05:42:55;5.33;;;3.60;;
45011;SDS011;63444;48.148;11.542;2024-01-30T05:45:23;5.03;;;3.53;;
45011;SDS011;63444;48.148;11.542;2024-01-30T05:47:48;5.20;;;3.70;;
45011;SDS011;63444;48.148;11.542;2024-01-30T05:50:14;6.00;;;3.57;;
45011;SDS011;63444;48.148;11.542;2024-01-30T05:52:40;4.60;;;3.70;;
45011;SDS011;63444;48.148;11.542;2024-01-30T05:55:05;4.00;;;3.37;;
45011;SDS011;63444;48.148;11.542;2024-01-30T05:57:31;5.17;;;3.67;;
45011;SDS011;63444;48.148;11.542;2024-01-30T05:59:57;3.97;;;3.20;;
45011;SDS011;63444;48.148;11.542;2024-01-30T06:02:23;5.13;;;3.77;;
45011;SDS011;63444;48.148;11.542;2024-01-30T06:04:48;7.23;;;4.13;;
45011;SDS011;63444;48.148;11.542;2024-01-30T06:07:14;6.87;;;3.90;;
45011;SDS011;63444;48.148;11.542;2024-01-30T06:09:39;6.13;;;3.57;;
45011;SDS011;63444;48.148;11.542;2024-01-30T06:12:06;7.60;;;4.10;;
45011;SDS011;63444;48.148;11.542;2024-01-30T06:14:32;8.10;;;4.37;;
45011;SDS011;63444;48.148;11.542;2024-01-30T06:16:58;4.73;;;3.80;;
45011;SDS011;63444;48.148;11.542;2024-01-30T06:19:24;3.90;;;3.30;;
45011;SDS011;63444;48.148;11.542;2024-01-30T06:21:49;4.53;;;3.40;;
45011;SDS011;63444;48.148;11.542;2024-01-30T06:24:15;5.17;;;3.30;;
45011;SDS011;63444;48.148;11.542;2024-01-30T06:26:40;4.57;;;2.97;;
45011;SDS011;63444;48.148;11.542;2024-01-30T06:29:06;5.80;;;3.23;;
45011;SDS011;63444;48.148;11.542;2024-01-30T06:31:39;4.47;;;3.17;;
45011;SDS011;63444;48.148;11.542;2024-01-30T06:34:08;7.07;;;3.33;;
45011;SDS011;63444;48.148;11.542;2024-01-30T06:36:37;5.13;;;3.50;;
45011;SDS011;63444;48.148;11.542;2024-01-30T06:39:03;5.37;;;3.43;;
45011;SDS011;63444;48.148;11.542;2024-01-30T06:41:29;6.03;;;3.80;;
45011;SDS011;63444;48.148;11.542;2024-01-30T06:43:56;4.63;;;3.40;;
45011;SDS011;63444;48.148;11.542;2024-01-30T06:46:22;7.30;;;4.20;;
45011;SDS011;63444;48.148;11.542;2024-01-30T06:48:48;6.00;;;3.83;;
45011;SDS011;63444;48.148;11.542;2024-01-30T06:51:13;7.47;;;3.90;;
45011;SDS011;63444;48.148;11.542;2024-01-30T06:53:39;5.07;;;4.10;;
45011;SDS011;63444;48.148;11.542;2024-01-30T06:56:05;5.53;;;3.73;;
45011;SDS011;63444;48.148;11.542;2024-01-30T06:58:31;4.03;;;3.33;;
45011;SDS011;63444;48.148;11.542;2024-01-30T07:00:57;5.37;;;4.20;;
45011;SDS011;63444;48.148;11.542;2024-01-30T07:03:23;5.50;;;3.67;;
45011;SDS011;63444;48.148;11.542;2024-01-30T07:05:49;5.03;;;3.87;;
45011;SDS011;63444;48.148;11.542;2024-01-30T07:08:15;6.80;;;4.00;;
45011;SDS011;63444;48.148;11.542;2024-01-30T07:10:42;4.83;;;3.73;;
45011;SDS011;63444;48.148;11.542;2024-01-30T07:13:08;6.10;;;4.30;;
45011;SDS011;63444;48.148;11.542;2024-01-30T07:15:35;5.37;;;3.73;;
45011;SDS011;63444;48.148;11.542;2024-01-30T07:18:03;5.00;;;3.63;;
45011;SDS011;63444;48.148;11.542;2024-01-30T07:20:29;4.83;;;3.87;;
45011;SDS011;63444;48.148;11.542;2024-01-30T07:22:57;4.70;;;3.53;;
45011;SDS011;63444;48.148;11.542;2024-01-30T07:25:23;5.20;;;3.50;;
45011;SDS011;63444;48.148;11.542;2024-01-30T07:27:54;5.90;;;4.07;;
45011;SDS011;63444;48.148;11.542;2024-01-30T07:30:20;5.33;;;3.80;;
45011;SDS011;63444;48.148;11.542;2024-01-30T07:32:46;6.27;;;3.90;;
45011;SDS011;63444;48.148;11.542;2024-01-30T07:35:12;4.73;;;3.57;;
45011;SDS011;63444;48.148;11.542;2024-01-30T07:37:38;6.13;;;3.83;;
45011;SDS011;63444;48.148;11.542;2024-01-30T07:40:04;7.03;;;3.50;;
45011;SDS011;63444;48.148;11.542;2024-01-30T07:42:31;6.27;;;3.77;;
45011;SDS011;63444;48.148;11.542;2024-01-30T07:44:57;7.03;;;3.90;;
45011;SDS011;63444;48.148;11.542;2024-01-30T07:47:22;7.60;;;3.97;;
45011;SDS011;63444;48.148;11.542;2024-01-30T07:49:48;7.30;;;4.30;;
45011;SDS011;63444;48.148;11.542;2024-01-30T07:52:13;7.20;;;4.13;;
45011;SDS011;63444;48.148;11.542;2024-01-30T07:54:39;8.67;;;3.97;;
45011;SDS011;63444;48.148;11.542;2024-01-30T07:57:05;7.00;;;4.07;;
45011;SDS011;63444;48.148;11.542;2024-01-30T07:59:30;11.97;;;4.40;;
45011;SDS011;63444;48.148;11.542;2024-01-30T08:01:56;7.50;;;3.97;;
45011;SDS011;63444;48.148;11.542;2024-01-30T08:04:21;7.37;;;3.87;;
45011;SDS011;63444;48.148;11.542;2024-01-30T08:06:47;8.03;;;4.30;;
45011;SDS011;63444;48.148;11.542;2024-01-30T08:09:14;7.90;;;3.70;;
45011;SDS011;63444;48.148;11.542;2024-01-30T08:11:41;5.93;;;3.40;;
45011;SDS011;63444;48.148;11.542;2024-01-30T08:14:07;5.77;;;3.40;;
45011;SDS011;63444;48.148;11.542;2024-01-30T08:16:33;7.07;;;3.50;;
45011;SDS011;63444;48.148;11.542;2024-01-30T08:18:59;8.27;;;4.13;;
45011;SDS011;63444;48.148;11.542;2024-01-30T08:21:26;5.87;;;3.80;;
45011;SDS011;63444;48.148;11.542;2024-01-30T08:23:51;7.90;;;3.90;;
45011;SDS011;63444;48.148;11.542;2024-01-30T08:26:17;7.33;;;3.50;;
45011;SDS011;63444;48.148;11.542;2024-01-30T08:28:43;10.47;;;3.90;;
45011;SDS011;63444;48.148;11.542;2024-01-30T08:31:10;6.60;;;4.07;;
45011;SDS011;63444;48.148;11.542;2024-01-30T08:33:37;7.33;;;3.80;;
45011;SDS011;63444;48.148;11.542;2024-01-30T08:36:02;5.77;;;3.70;;
45011;SDS011;63444;48.148;11.542;2024-01-30T08:38:28;9.80;;;4.33;;
45011;SDS011;63444;48.148;11.542;2024-01-30T08:40:54;7.53;;;3.93;;
45011;SDS011;63444;48.148;11.542;2024-01-30T08:43:21;10.10;;;3.73;;
45011;SDS011;63444;48.148;11.542;2024-01-30T08:45:46;5.27;;;3.80;;
45011;SDS011;63444;48.148;11.542;2024-01-30T08:48:12;7.57;;;3.67;;
45011;SDS011;63444;48.148;11.542;2024-01-30T08:50:37;5.70;;;3.57;;
45011;SDS011;63444;48.148;11.542;2024-01-30T08:53:03;6.67;;;3.50;;
45011;SDS011;63444;48.148;11.542;2024-01-30T08:55:29;4.23;;;2.93;;
45011;SDS011;63444;48.148;11.542;2024-01-30T08:57:56;5.73;;;3.40;;
45011;SDS011;63444;48.148;11.542;2024-01-30T09:00:22;8.03;;;3.63;;
45011;SDS011;63444;48.148;11.542;2024-01-30T09:02:48;5.00;;;3.50;;
45011;SDS011;63444;48.148;11.542;2024-01-30T09:05:13;9.00;;;3.43;;
45011;SDS011;63444;48.148;11.542;2024-01-30T09:07:39;6.83;;;3.40;;
45011;SDS011;63444;48.148;11.542;2024-01-30T09:10:05;5.37;;;3.43;;
45011;SDS011;63444;48.148;11.542;2024-01-30T09:12:32;10.53;;;3.57;;
45011;SDS011;63444;48.148;11.542;2024-01-30T09:14:57;5.57;;;3.20;;
45011;SDS011;63444;48.148;11.542;2024-01-30T09:17:23;8.17;;;3.27;;
45011;SDS011;63444;48.148;11.542;2024-01-30T09:19:49;3.77;;;2.93;;
45011;SDS011;63444;48.148;11.542;2024-01-30T09:22:14;5.70;;;3.00;;
45011;SDS011;63444;48.148;11.542;2024-01-30T09:24:41;5.50;;;3.20;;
45011;SDS011;63444;48.148;11.542;2024-01-30T09:27:07;11.33;;;3.90;;
45011;SDS011;63444;48.148;11.542;2024-01-30T09:29:32;5.73;;;3.57;;
45011;SDS011;63444;48.148;11.542;2024-01-30T09:32:01;7.83;;;3.07;;
45011;SDS011;63444;48.148;11.542;2024-01-30T09:34:26;7.00;;;3.33;;
45011;SDS011;63444;48.148;11.542;2024-01-30T09:36:52;6.73;;;3.00;;
45011;SDS011;63444;48.148;11.542;2024-01-30T09:39:19;5.70;;;3.17;;
45011;SDS011;63444;48.148;11.542;2024-01-30T09:41:48;5.80;;;3.20;;
45011;SDS011;63444;48.148;11.542;2024-01-30T09:44:16;4.23;;;2.63;;
45011;SDS011;63444;48.148;11.542;2024-01-30T09:46:43;5.67;;;3.17;;
45011;SDS011;63444;48.148;11.542;2024-01-30T09:49:15;4.13;;;2.60;;
45011;SDS011;63444;48.148;11.542;2024-01-30T09:51:43;4.57;;;2.97;;
45011;SDS011;63444;48.148;11.542;2024-01-30T09:54:10;4.80;;;2.50;;
45011;SDS011;63444;48.148;11.542;2024-01-30T09:56:38;4.77;;;2.70;;
45011;SDS011;63444;48.148;11.542;2024-01-30T09:59:04;3.97;;;2.67;;
45011;SDS011;63444;48.148;11.542;2024-01-30T10:01:29;5.03;;;2.50;;
45011;SDS011;63444;48.148;11.542;2024-01-30T10:03:56;3.47;;;2.57;;
45011;SDS011;63444;48.148;11.542;2024-01-30T10:06:22;4.70;;;2.40;;
45011;SDS011;63444;48.148;11.542;2024-01-30T10:08:50;5.27;;;2.20;;
45011;SDS011;63444;48.148;11.542;2024-01-30T10:11:15;5.17;;;2.50;;
45011;SDS011;63444;48.148;11.542;2024-01-30T10:13:41;6.33;;;2.50;;
45011;SDS011;63444;48.148;11.542;2024-01-30T10:16:06;5.27;;;2.40;;
45011;SDS011;63444;48.148;11.542;2024-01-30T10:18:32;13.83;;;4.87;;
45011;SDS011;63444;48.148;11.542;2024-01-30T10:20:58;22.47;;;7.73;;
45011;SDS011;63444;48.148;11.542;2024-01-30T10:23:24;18.30;;;6.90;;
45011;SDS011;63444;48.148;11.542;2024-01-30T10:25:51;20.30;;;6.83;;
45011;SDS011;63444;48.148;11.542;2024-01-30T10:28:17;12.17;;;5.70;;
45011;SDS011;63444;48.148;11.542;2024-01-30T10:30:43;10.00;;;4.73;;
45011;SDS011;63444;48.148;11.542;2024-01-30T10:33:09;7.90;;;3.90;;
45011;SDS011;63444;48.148;11.542;2024-01-30T10:35:34;20.80;;;7.00;;
45011;SDS011;63444;48.148;11.542;2024-01-30T10:38:00;21.67;;;8.23;;
45011;SDS011;63444;48.148;11.542;2024-01-30T10:40:27;15.67;;;5.40;;
45011;SDS011;63444;48.148;11.542;2024-01-30T10:42:53;12.13;;;5.23;;
45011;SDS011;63444;48.148;11.542;2024-01-30T10:45:24;7.13;;;3.50;;
45011;SDS011;63444;48.148;11.542;2024-01-30T10:47:53;6.27;;;2.93;;
45011;SDS011;63444;48.148;11.542;2024-01-30T10:50:24;5.00;;;2.07;;
45011;SDS011;63444;48.148;11.542;2024-01-30T10:52:51;4.87;;;1.97;;
45011;SDS011;63444;48.148;11.542;2024-01-30T10:55:18;9.10;;;2.30;;
45011;SDS011;63444;48.148;11.542;2024-01-30T10:57:45;7.17;;;2.27;;
45011;SDS011;63444;48.148;11.542;2024-01-30T11:00:11;7.13;;;1.97;;
45011;SDS011;63444;48.148;11.542;2024-01-30T11:02:41;7.13;;;2.20;;
45011;SDS011;63444;48.148;11.542;2024-01-30T11:05:08;3.90;;;2.00;;
45011;SDS011;63444;48.148;11.542;2024-01-30T11:07:35;5.87;;;2.90;;
45011;SDS011;63444;48.148;11.542;2024-01-30T11:10:04;5.30;;;2.20;;
45011;SDS011;63444;48.148;11.542;2024-01-30T11:12:32;3.57;;;2.00;;
45011;SDS011;63444;48.148;11.542;2024-01-30T11:15:08;3.03;;;1.93;;
45011;SDS011;63444;48.148;11.542;2024-01-30T11:20:16;3.57;;;1.80;;
45011;SDS011;63444;48.148;11.542;2024-01-30T11:22:47;3.63;;;1.67;;
45011;SDS011;63444;48.148;11.542;2024-01-30T11:25:14;3.57;;;1.50;;
45011;SDS011;63444;48.148;11.542;2024-01-30T11:27:42;2.97;;;1.90;;
45011;SDS011;63444;48.148;11.542;2024-01-30T11:30:08;2.57;;;1.80;;
45011;SDS011;63444;48.148;11.542;2024-01-30T11:32:34;5.80;;;2.17;;
45011;SDS011;63444;48.148;11.542;2024-01-30T11:35:00;2.13;;;1.93;;
45011;SDS011;63444;48.148;11.542;2024-01-30T11:37:28;3.20;;;1.60;;
45011;SDS011;63444;48.148;11.542;2024-01-30T11:39:56;7.50;;;2.20;;
45011;SDS011;63444;48.148;11.542;2024-01-30T11:42:23;4.07;;;2.10;;
45011;SDS011;63444;48.148;11.542;2024-01-30T11:44:52;2.70;;;2.17;;
45011;SDS011;63444;48.148;11.542;2024-01-30T11:47:18;3.10;;;1.90;;
45011;SDS011;63444;48.148;11.542;2024-01-30T11:49:44;3.13;;;1.93;;
45011;SDS011;63444;48.148;11.542;2024-01-30T11:52:10;3.90;;;2.17;;
45011;SDS011;63444;48.148;11.542;2024-01-30T11:54:36;4.03;;;2.00;;
45011;SDS011;63444;48.148;11.542;2024-01-30T11:57:05;4.97;;;2.00;;
45011;SDS011;63444;48.148;11.542;2024-01-30T11:59:30;5.23;;;2.30;;
45011;SDS011;63444;48.148;11.542;2024-01-30T12:01:56;3.43;;;1.97;;
45011;SDS011;63444;48.148;11.542;2024-01-30T12:04:21;4.37;;;2.13;;
45011;SDS011;63444;48.148;11.542;2024-01-30T12:06:50;3.70;;;1.93;;
45011;SDS011;63444;48.148;11.542;2024-01-30T12:09:17;3.33;;;2.00;;
45011;SDS011;63444;48.148;11.542;2024-01-30T12:11:44;2.07;;;1.77;;
45011;SDS011;63444;48.148;11.542;2024-01-30T12:14:10;4.30;;;2.27;;
45011;SDS011;63444;48.148;11.542;2024-01-30T12:16:37;4.10;;;2.00;;
45011;SDS011;63444;48.148;11.542;2024-01-30T12:19:02;5.13;;;1.90;;
45011;SDS011;63444;48.148;11.542;2024-01-30T12:21:28;3.10;;;2.07;;
45011;SDS011;63444;48.148;11.542;2024-01-30T12:23:55;4.80;;;1.90;;
45011;SDS011;63444;48.148;11.542;2024-01-30T12:26:25;2.93;;;1.63;;
45011;SDS011;63444;48.148;11.542;2024-01-30T12:28:51;2.70;;;1.87;;
45011;SDS011;63444;48.148;11.542;2024-01-30T12:31:25;7.03;;;2.00;;
45011;SDS011;63444;48.148;11.542;2024-01-30T12:33:53;3.57;;;2.10;;
45011;SDS011;63444;48.148;11.542;2024-01-30T12:36:20;1.73;;;1.60;;
45011;SDS011;63444;48.148;11.542;2024-01-30T12:38:47;3.30;;;1.63;;
45011;SDS011;63444;48.148;11.542;2024-01-30T12:41:13;2.50;;;1.90;;
45011;SDS011;63444;48.148;11.542;2024-01-30T12:43:39;2.37;;;1.60;;
45011;SDS011;63444;48.148;11.542;2024-01-30T12:46:05;1.97;;;1.77;;
45011;SDS011;63444;48.148;11.542;2024-01-30T12:48:31;6.27;;;2.00;;
45011;SDS011;63444;48.148;11.542;2024-01-30T12:50:56;3.87;;;2.00;;
45011;SDS011;63444;48.148;11.542;2024-01-30T12:53:22;3.43;;;2.03;;
45011;SDS011;63444;48.148;11.542;2024-01-30T12:55:48;3.67;;;1.80;;
45011;SDS011;63444;48.148;11.542;2024-01-30T12:58:15;3.73;;;1.70;;
45011;SDS011;63444;48.148;11.542;2024-01-30T13:00:42;2.63;;;1.80;;
45011;SDS011;63444;48.148;11.542;2024-01-30T13:03:09;3.07;;;1.83;;
45011;SDS011;63444;48.148;11.542;2024-01-30T13:05:35;3.17;;;1.80;;
45011;SDS011;63444;48.148;11.542;2024-01-30T13:08:01;3.63;;;1.67;;
45011;SDS011;63444;48.148;11.542;2024-01-30T13:10:26;2.47;;;1.67;;
45011;SDS011;63444;48.148;11.542;2024-01-30T13:12:52;2.47;;;1.80;;
45011;SDS011;63444;48.148;11.542;2024-01-30T13:15:18;3.90;;;1.80;;
45011;SDS011;63444;48.148;11.542;2024-01-30T13:17:44;3.83;;;1.87;;
45011;SDS011;63444;48.148;11.542;2024-01-30T13:20:12;2.77;;;2.00;;
45011;SDS011;63444;48.148;11.542;2024-01-30T13:22:41;3.27;;;1.63;;
45011;SDS011;63444;48.148;11.542;2024-01-30T13:25:08;3.47;;;1.97;;
45011;SDS011;63444;48.148;11.542;2024-01-30T13:27:36;2.57;;;1.60;;
45011;SDS011;63444;48.148;11.542;2024-01-30T13:30:02;2.63;;;1.90;;
45011;SDS011;63444;48.148;11.542;2024-01-30T13:32:29;4.63;;;1.60;;
45011;SDS011;63444;48.148;11.542;2024-01-30T13:34:54;2.20;;;1.70;;
45011;SDS011;63444;48.148;11.542;2024-01-30T13:37:21;2.77;;;1.40;;
45011;SDS011;63444;48.148;11.542;2024-01-30T13:39:48;2.40;;;1.63;;
45011;SDS011;63444;48.148;11.542;2024-01-30T13:42:13;3.93;;;1.50;;
45011;SDS011;63444;48.148;11.542;2024-01-30T13:44:40;2.43;;;1.60;;
45011;SDS011;63444;48.148;11.542;2024-01-30T13:47:09;3.93;;;1.70;;
45011;SDS011;63444;48.148;11.542;2024-01-30T13:49:34;4.40;;;1.90;;
45011;SDS011;63444;48.148;11.542;2024-01-30T13:52:00;4.07;;;1.60;;
45011;SDS011;63444;48.148;11.542;2024-01-30T13:54:25;3.27;;;1.70;;
45011;SDS011;63444;48.148;11.542;2024-01-30T13:56:51;5.97;;;2.10;;
45011;SDS011;63444;48.148;11.542;2024-01-30T13:59:17;3.57;;;1.70;;
45011;SDS011;63444;48.148;11.542;2024-01-30T14:01:48;3.97;;;1.80;;
45011;SDS011;63444;48.148;11.542;2024-01-30T14:04:14;2.60;;;1.67;;
45011;SDS011;63444;48.148;11.542;2024-01-30T14:06:40;4.07;;;1.97;;
45011;SDS011;63444;48.148;11.542;2024-01-30T14:09:05;3.40;;;1.87;;
45011;SDS011;63444;48.148;11.542;2024-01-30T14:11:31;3.23;;;2.23;;
45011;SDS011;63444;48.148;11.542;2024-01-30T14:13:57;6.57;;;1.80;;
45011;SDS011;63444;48.148;11.542;2024-01-30T14:16:24;2.43;;;1.67;;
45011;SDS011;63444;48.148;11.542;2024-01-30T14:18:49;5.80;;;2.23;;
45011;SDS011;63444;48.148;11.542;2024-01-30T14:21:15;6.30;;;2.00;;
45011;SDS011;63444;48.148;11.542;2024-01-30T14:23:41;6.03;;;2.17;;
45011;SDS011;63444;48.148;11.542;2024-01-30T14:26:07;3.50;;;2.10;;
45011;SDS011;63444;48.148;11.542;2024-01-30T14:28:32;3.63;;;1.83;;
45011;SDS011;63444;48.148;11.542;2024-01-30T14:30:58;3.73;;;2.00;;